Time;durP1;ratioP1;P1;durP2;ratioP2;P2;SDS_P1;SDS_P2;PMS_P1;PMS_P2;Temp;Humidity;BMP_temperature;BMP_pressure;BME280_temperature;BME280_humidity;BME280_pressure;Samples;Min_cycle;Max_cycle;Signal;HPM_P1;HPM_P2
2022/12/21 00:01:28;;;;;;;17.60;10.13;;;3.60;99.90;3.30;100308.00;;;;5006715;27;110353;-68
2022/12/21 00:03:59;;;;;;;13.37;8.77;;;3.60;99.90;3.30;100295.00;;;;5007200;27;87243;-68
2022/12/21 00:06:29;;;;;;;11.13;7.27;;;3.60;99.90;3.40;100302.00;;;;5010782;27;88990;-70
2022/12/21 00:08:59;;;;;;;16.30;8.57;;;4.00;99.90;3.40;100299.00;;;;5010240;27;88566;-70
2022/12/21 00:11:26;;;;;;;14.97;9.50;;;3.60;99.90;3.40;100304.00;;;;5009114;27;88738;-69
2022/12/21 00:13:55;;;;;;;15.30;10.00;;;3.60;99.90;3.50;100307.00;;;;5009878;27;88120;-68
2022/12/21 00:16:23;;;;;;;13.70;9.30;;;3.60;99.90;3.50;100317.00;;;;5010274;27;88293;-69
2022/12/21 00:18:49;;;;;;;17.27;9.37;;;3.70;99.90;3.50;100310.00;;;;5007769;27;105382;-69
2022/12/21 00:21:24;;;;;;;16.37;9.13;;;3.70;99.90;3.50;100311.00;;;;4994268;27;88166;-69
2022/12/21 00:23:53;;;;;;;13.00;8.07;;;3.70;99.90;3.50;100301.00;;;;5013168;27;88139;-70
2022/12/21 00:26:22;;;;;;;17.00;9.43;;;3.70;99.90;3.40;100303.00;;;;5013749;27;88484;-68
2022/12/21 00:28:49;;;;;;;11.90;7.90;;;3.70;99.90;3.40;100313.00;;;;5014555;27;88161;-67
2022/12/21 00:31:19;;;;;;;13.20;8.33;;;3.70;99.90;3.40;100308.00;;;;5016128;27;87908;-70
2022/12/21 00:33:46;;;;;;;10.97;7.67;;;3.50;99.90;3.30;100315.00;;;;4978587;27;87912;-68
2022/12/21 00:36:14;;;;;;;12.60;9.00;;;3.50;99.90;3.30;100308.00;;;;4975013;27;90460;-67
2022/12/21 00:38:41;;;;;;;14.07;8.43;;;3.50;99.90;3.30;100296.00;;;;5006415;27;112599;-70
2022/12/21 00:41:12;;;;;;;14.43;8.03;;;3.70;99.90;3.40;100312.00;;;;4979858;27;87949;-67
2022/12/21 00:43:39;;;;;;;10.17;7.23;;;3.60;99.90;3.40;100319.00;;;;5015948;27;87724;-69
2022/12/21 00:46:06;;;;;;;19.13;9.57;;;3.80;99.90;3.30;100319.00;;;;5013353;27;89270;-68
2022/12/21 00:48:33;;;;;;;11.00;6.27;;;3.50;99.90;3.40;100323.00;;;;5011442;27;89622;-69
2022/12/21 00:51:07;;;;;;;9.87;7.47;;;3.60;99.90;3.40;100318.00;;;;4995105;27;88227;-68
2022/12/21 00:53:33;;;;;;;12.37;8.03;;;3.10;99.90;3.40;100304.00;;;;5009958;27;96912;-69
2022/12/21 00:56:01;;;;;;;13.60;9.07;;;3.60;99.90;3.40;100307.00;;;;5013424;27;118052;-67
2022/12/21 00:58:29;;;;;;;14.93;7.97;;;3.50;99.90;3.30;100322.00;;;;5009992;27;112156;-69
2022/12/21 01:00:57;;;;;;;11.73;8.13;;;3.60;99.90;3.30;100319.00;;;;4992586;27;88914;-69
2022/12/21 01:03:24;;;;;;;12.00;7.90;;;4.10;99.90;3.30;100311.00;;;;5011510;27;89300;-68
2022/12/21 01:05:51;;;;;;;15.33;9.07;;;3.50;99.90;3.30;100318.00;;;;5010449;27;88256;-68
2022/12/21 01:08:18;;;;;;;14.07;8.27;;;3.40;99.90;3.30;100305.00;;;;5009397;27;88173;-68
2022/12/21 01:10:45;;;;;;;12.47;8.10;;;3.40;99.90;3.20;100307.00;;;;5010843;27;88268;-67
2022/12/21 01:13:13;;;;;;;14.87;8.03;;;3.40;99.90;3.20;100313.00;;;;4995250;27;87949;-71
2022/12/21 01:15:41;;;;;;;12.53;7.97;;;3.30;99.90;3.20;100300.00;;;;5010397;27;100984;-70
2022/12/21 01:18:07;;;;;;;21.30;7.90;;;3.30;99.90;3.10;100301.00;;;;4992966;27;98296;-68
2022/12/21 01:20:33;;;;;;;19.07;9.40;;;3.40;99.90;3.10;100291.00;;;;5007094;27;88207;-70
2022/12/21 01:22:58;;;;;;;10.73;8.33;;;3.40;99.90;3.10;100295.00;;;;5010910;27;108899;-71
2022/12/21 01:25:24;;;;;;;16.07;8.50;;;3.80;99.90;3.10;100292.00;;;;4994133;27;118059;-71
2022/12/21 01:27:50;;;;;;;15.57;8.27;;;3.30;99.90;3.10;100288.00;;;;5008848;27;118990;-72
2022/12/21 01:30:16;;;;;;;15.90;8.23;;;3.30;99.90;3.10;100286.00;;;;5009529;27;110630;-71
2022/12/21 01:32:41;;;;;;;15.13;8.50;;;3.30;99.90;3.10;100286.00;;;;4992025;27;87854;-71
2022/12/21 01:35:08;;;;;;;14.13;8.10;;;3.30;99.90;3.10;100283.00;;;;5006433;27;116993;-72
2022/12/21 01:37:33;;;;;;;16.63;8.83;;;3.30;99.90;3.10;100285.00;;;;5009432;27;87834;-71
2022/12/21 01:39:59;;;;;;;10.03;7.77;;;3.20;99.90;3.00;100274.00;;;;5007826;27;111042;-71
2022/12/21 01:42:24;;;;;;;15.03;7.93;;;3.30;99.90;3.10;100294.00;;;;5009891;27;87123;-70
2022/12/21 01:45:23;;;;;;;12.50;8.43;;;3.20;99.90;3.00;100279.00;;;;4995353;27;118750;-70
2022/12/21 01:47:59;;;;;;;11.30;8.57;;;3.30;99.90;3.00;100265.00;;;;4995158;27;87990;-67
2022/12/21 01:50:36;;;;;;;15.23;8.93;;;3.20;99.90;3.10;100261.00;;;;4994541;27;88994;-68
2022/12/21 01:53:15;;;;;;;11.17;7.50;;;3.20;99.90;3.10;100262.00;;;;4995206;27;101308;-68
2022/12/21 01:55:42;;;;;;;13.70;7.40;;;3.30;99.90;3.10;100252.00;;;;5010900;27;96855;-68
2022/12/21 01:58:08;;;;;;;11.93;8.37;;;3.30;99.90;3.10;100258.00;;;;5008669;27;87941;-68
2022/12/21 02:00:34;;;;;;;11.93;7.70;;;3.30;99.90;3.10;100263.00;;;;4993189;27;90298;-68
2022/12/21 02:03:05;;;;;;;13.47;8.10;;;3.30;99.90;3.10;100252.00;;;;5012452;27;108973;-69
2022/12/21 02:06:01;;;;;;;10.53;7.77;;;3.30;99.90;3.10;100257.00;;;;4992669;27;88962;-68
2022/12/21 02:08:27;;;;;;;12.73;6.87;;;3.30;99.90;3.20;100258.00;;;;4992034;27;88561;-69
2022/12/21 02:10:54;;;;;;;9.50;7.17;;;3.40;99.90;3.20;100252.00;;;;4978973;27;88037;-67
2022/12/21 02:13:20;;;;;;;11.57;8.03;;;3.30;99.90;3.20;100242.00;;;;4991588;27;87772;-67
2022/12/21 02:15:58;;;;;;;15.30;8.47;;;3.40;99.90;3.20;100243.00;;;;5010350;27;90587;-67
2022/12/21 02:18:45;;;;;;;13.37;8.20;;;3.40;99.90;3.20;100244.00;;;;5010180;27;88177;-67
2022/12/21 02:21:42;;;;;;;12.03;7.90;;;3.50;99.90;3.20;100244.00;;;;5012757;27;87857;-67
2022/12/21 02:24:46;;;;;;;9.33;6.73;;;3.60;99.90;3.30;100239.00;;;;4991872;27;90142;-67
2022/12/21 02:27:57;;;;;;;13.00;7.87;;;3.50;99.90;3.30;100232.00;;;;4993718;27;90492;-68
2022/12/21 02:30:24;;;;;;;13.50;8.10;;;3.60;99.90;3.40;100243.00;;;;4993153;27;112488;-67
2022/12/21 02:33:31;;;;;;;12.07;6.97;;;3.60;99.90;3.40;100233.00;;;;4990048;27;109955;-67
2022/12/21 02:36:25;;;;;;;10.30;7.40;;;3.70;99.90;3.50;100241.00;;;;4977377;27;87222;-68
2022/12/21 02:39:18;;;;;;;12.17;7.17;;;3.70;99.90;3.50;100228.00;;;;5000262;27;88186;-67
2022/12/21 02:42:07;;;;;;;13.43;7.70;;;3.70;99.90;3.60;100228.00;;;;4994288;27;100805;-68
2022/12/21 02:44:47;;;;;;;16.07;8.73;;;3.80;99.90;3.60;100224.00;;;;5013984;27;90022;-68
2022/12/21 02:47:18;;;;;;;17.23;7.03;;;3.80;99.90;3.70;100220.00;;;;4992049;27;87837;-69
2022/12/21 02:49:57;;;;;;;9.73;7.93;;;3.90;99.90;3.70;100213.00;;;;4991786;27;88616;-68
2022/12/21 02:52:42;;;;;;;11.50;7.03;;;3.90;99.90;3.80;100214.00;;;;4993622;27;103729;-68
2022/12/21 02:55:14;;;;;;;17.17;8.93;;;4.00;99.90;3.80;100220.00;;;;4994647;27;88060;-67
2022/12/21 02:57:43;;;;;;;13.57;7.80;;;4.10;99.90;3.90;100214.00;;;;5011914;27;87917;-70
2022/12/21 03:00:14;;;;;;;15.50;7.13;;;4.00;99.90;3.90;100211.00;;;;5005777;27;88202;-69
2022/12/21 03:06:00;;;;;;;12.07;6.90;;;4.20;99.90;3.90;100220.00;;;;5010849;27;87889;-68
2022/12/21 03:08:59;;;;;;;9.03;7.27;;;4.20;99.90;4.00;100222.00;;;;5010000;27;93540;-67
2022/12/21 03:11:50;;;;;;;16.20;9.20;;;4.20;99.90;4.00;100214.00;;;;4992416;27;111084;-69
2022/12/21 03:15:11;;;;;;;13.00;7.07;;;4.20;99.90;4.00;100222.00;;;;5010190;27;88172;-69
2022/12/21 03:18:04;;;;;;;13.87;7.33;;;4.30;99.90;4.00;100222.00;;;;5008063;27;88369;-68
2022/12/21 03:20:41;;;;;;;16.30;7.63;;;4.30;99.90;4.10;100225.00;;;;4991696;27;87891;-68
2022/12/21 03:23:20;;;;;;;12.30;7.00;;;4.30;99.90;4.10;100225.00;;;;4988060;27;102410;-69
2022/12/21 03:26:24;;;;;;;11.97;6.23;;;4.30;99.90;4.10;100215.00;;;;5009877;27;109225;-69
2022/12/21 03:28:52;;;;;;;13.53;7.07;;;4.30;99.90;4.10;100200.00;;;;5002943;27;87813;-68
2022/12/21 03:31:25;;;;;;;10.93;6.77;;;4.30;99.90;4.20;100201.00;;;;4991988;27;108920;-67
2022/12/21 03:34:23;;;;;;;16.67;8.97;;;4.40;99.90;4.10;100204.00;;;;4992295;27;88248;-68
2022/12/21 03:37:19;;;;;;;13.27;7.23;;;4.30;99.90;4.10;100199.00;;;;4991351;27;87873;-68
2022/12/21 03:39:58;;;;;;;10.43;6.90;;;4.30;99.90;4.10;100198.00;;;;4987728;27;95993;-69
2022/12/21 03:42:29;;;;;;;9.00;5.63;;;4.30;99.90;4.00;100190.00;;;;4986183;27;87973;-69
2022/12/21 03:45:13;;;;;;;10.93;7.40;;;4.20;99.90;4.00;100187.00;;;;4964571;28;89138;-69
2022/12/21 03:47:42;;;;;;;9.07;7.10;;;4.30;99.90;4.00;100191.00;;;;4954041;28;105858;-68
2022/12/21 03:50:16;;;;;;;10.80;6.93;;;4.40;99.90;3.90;100185.00;;;;4967655;27;98701;-69
2022/12/21 03:52:51;;;;;;;9.60;7.07;;;4.10;99.90;3.90;100195.00;;;;4969894;28;99759;-68
2022/12/21 03:55:29;;;;;;;12.57;7.47;;;4.10;99.90;3.80;100183.00;;;;4971992;28;109725;-68
2022/12/21 03:57:56;;;;;;;12.60;7.97;;;4.60;99.90;3.80;100199.00;;;;4969170;28;104210;-68
2022/12/21 04:00:22;;;;;;;11.47;6.63;;;4.00;99.90;3.80;100185.00;;;;4985675;27;109758;-69
2022/12/21 04:03:08;;;;;;;11.00;7.90;;;3.90;99.90;3.80;100192.00;;;;4968003;28;108974;-68
2022/12/21 04:05:41;;;;;;;15.37;7.53;;;3.90;99.90;3.70;100190.00;;;;4985355;27;89146;-69
2022/12/21 04:08:08;;;;;;;10.50;7.73;;;4.00;99.90;3.70;100182.00;;;;4969693;27;106296;-68
2022/12/21 04:10:34;;;;;;;16.43;9.00;;;3.90;99.90;3.70;100184.00;;;;4986045;27;110432;-68
2022/12/21 04:12:59;;;;;;;11.40;6.63;;;3.90;99.90;3.70;100184.00;;;;4965438;28;108864;-67
2022/12/21 04:18:13;;;;;;;12.80;7.23;;;3.90;99.90;3.70;100185.00;;;;4984468;27;87839;-68
2022/12/21 04:20:38;;;;;;;11.47;7.47;;;3.90;99.90;3.70;100178.00;;;;4982520;27;87960;-68
2022/12/21 04:28:33;;;;;;;10.37;6.57;;;3.80;99.90;3.70;100180.00;;;;4974455;28;88004;-68
2022/12/21 04:31:00;;;;;;;10.20;7.80;;;3.90;99.90;3.70;100162.00;;;;4988663;28;102952;-69
2022/12/21 04:33:29;;;;;;;12.37;8.60;;;3.90;99.90;3.70;100170.00;;;;4988579;28;87869;-68
2022/12/21 04:38:43;;;;;;;9.93;7.40;;;4.70;99.90;3.60;100172.00;;;;4988923;28;87739;-68
2022/12/21 04:41:10;;;;;;;14.23;7.67;;;3.90;99.90;3.60;100176.00;;;;4969331;28;100194;-68
2022/12/21 04:43:39;;;;;;;11.87;7.00;;;3.80;99.90;3.60;100158.00;;;;5005360;27;106587;-68
2022/12/21 04:46:11;;;;;;;9.97;8.40;;;3.90;99.90;3.60;100177.00;;;;5005389;27;88966;-68
2022/12/21 04:48:37;;;;;;;13.70;8.10;;;4.50;99.90;3.60;100168.00;;;;4989393;27;88008;-68
2022/12/21 04:51:16;;;;;;;25.17;12.67;;;3.80;99.90;3.50;100164.00;;;;5003770;27;102931;-69
2022/12/21 04:53:42;;;;;;;14.50;8.27;;;3.80;99.90;3.50;100168.00;;;;4989371;27;88469;-68
2022/12/21 04:56:08;;;;;;;10.80;8.47;;;3.80;99.90;3.50;100163.00;;;;5008732;27;89795;-69
2022/12/21 04:58:34;;;;;;;12.37;9.03;;;3.60;99.90;3.50;100172.00;;;;5008898;27;116013;-70
2022/12/21 05:01:03;;;;;;;14.50;8.43;;;4.40;99.90;3.50;100167.00;;;;4991428;27;88154;-69
2022/12/21 05:03:30;;;;;;;14.80;9.27;;;4.60;99.90;3.50;100170.00;;;;5009987;27;87870;-68
2022/12/21 05:05:58;;;;;;;14.57;8.83;;;3.60;99.90;3.40;100167.00;;;;5009416;27;88071;-68
2022/12/21 05:08:24;;;;;;;11.10;7.73;;;3.70;99.90;3.40;100164.00;;;;5009216;27;88355;-69
2022/12/21 05:10:50;;;;;;;9.67;7.23;;;3.60;99.90;3.50;100170.00;;;;5011013;27;109490;-69
2022/12/21 05:13:16;;;;;;;13.10;8.43;;;3.70;99.90;3.40;100163.00;;;;5013714;27;87109;-69
2022/12/21 05:15:41;;;;;;;11.10;6.03;;;3.20;99.90;3.40;100160.00;;;;5010220;27;117869;-70
2022/12/21 05:18:07;;;;;;;13.03;8.80;;;3.60;99.90;3.40;100161.00;;;;5010299;27;116948;-68
2022/12/21 05:20:33;;;;;;;11.07;8.93;;;4.20;99.90;3.40;100154.00;;;;5009173;27;110549;-70
2022/12/21 05:22:58;;;;;;;14.57;8.50;;;4.50;99.90;3.40;100164.00;;;;5001685;27;95668;-68
2022/12/21 05:25:24;;;;;;;17.00;8.03;;;3.60;99.90;3.40;100157.00;;;;5011755;27;116422;-70
2022/12/21 05:27:50;;;;;;;12.93;7.67;;;3.60;99.90;3.30;100150.00;;;;5012898;27;116175;-68
2022/12/21 05:30:16;;;;;;;9.50;7.63;;;3.50;99.90;3.30;100162.00;;;;5014104;27;88104;-70
2022/12/21 05:32:41;;;;;;;7.10;6.27;;;3.50;99.90;3.30;100156.00;;;;4994577;27;96568;-69
2022/12/21 05:35:07;;;;;;;13.53;7.57;;;3.50;99.90;3.30;100162.00;;;;4993056;27;117840;-69
2022/12/21 05:37:33;;;;;;;11.83;7.70;;;3.50;99.90;3.30;100169.00;;;;5013633;27;88718;-69
2022/12/21 05:39:59;;;;;;;10.63;8.53;;;3.50;99.90;3.30;100152.00;;;;4989913;27;104530;-70
2022/12/21 05:42:24;;;;;;;12.37;8.50;;;3.50;99.90;3.30;100153.00;;;;5008815;27;109121;-68
2022/12/21 05:44:50;;;;;;;14.53;8.17;;;3.50;99.90;3.30;100153.00;;;;5009973;27;118895;-70
2022/12/21 05:47:16;;;;;;;15.97;9.07;;;3.60;99.90;3.30;100156.00;;;;5013378;27;117849;-68
2022/12/21 05:49:41;;;;;;;17.80;9.10;;;3.50;99.90;3.30;100153.00;;;;5011457;27;108695;-70
2022/12/21 05:52:07;;;;;;;12.20;7.70;;;3.50;99.90;3.30;100150.00;;;;5007609;27;107661;-69
2022/12/21 05:54:33;;;;;;;9.97;7.50;;;3.50;99.90;3.30;100151.00;;;;5011858;27;116356;-68
2022/12/21 05:56:58;;;;;;;11.33;8.03;;;3.60;99.90;3.30;100153.00;;;;5009685;27;117446;-70
2022/12/21 05:59:24;;;;;;;11.50;7.90;;;3.50;99.90;3.30;100159.00;;;;5012634;27;109755;-70
2022/12/21 06:01:50;;;;;;;9.70;7.50;;;3.50;99.90;3.40;100155.00;;;;5012942;27;108037;-70
2022/12/21 06:04:15;;;;;;;16.87;10.23;;;3.50;99.90;3.30;100157.00;;;;5012111;27;88673;-71
2022/12/21 06:06:41;;;;;;;11.40;6.90;;;3.00;99.90;3.40;100150.00;;;;5009416;27;117993;-70
2022/12/21 06:09:07;;;;;;;15.27;8.07;;;3.50;99.90;3.30;100147.00;;;;5006231;27;112742;-68
2022/12/21 06:11:32;;;;;;;20.20;12.20;;;3.50;99.90;3.30;100146.00;;;;4989745;27;108893;-68
2022/12/21 06:13:58;;;;;;;15.43;7.77;;;3.60;99.90;3.30;100144.00;;;;5010122;27;88409;-68
2022/12/21 06:16:26;;;;;;;11.87;7.63;;;3.30;99.90;3.40;100136.00;;;;5005702;27;118047;-70
2022/12/21 06:18:53;;;;;;;11.30;7.43;;;3.60;99.90;3.40;100146.00;;;;5006778;27;110089;-69
2022/12/21 06:21:20;;;;;;;12.00;7.17;;;3.60;99.90;3.40;100145.00;;;;5007171;27;88018;-69
2022/12/21 06:23:47;;;;;;;11.37;7.30;;;3.50;99.90;3.40;100147.00;;;;5010482;27;88108;-67
2022/12/21 06:26:17;;;;;;;15.17;7.97;;;3.70;99.90;3.50;100149.00;;;;4992559;27;87777;-68
2022/12/21 06:28:51;;;;;;;24.00;11.33;;;3.70;99.90;3.50;100152.00;;;;5008847;27;100230;-70
2022/12/21 06:31:19;;;;;;;13.53;8.33;;;3.60;99.90;3.50;100152.00;;;;4991702;27;89227;-68
2022/12/21 06:33:44;;;;;;;12.57;7.27;;;3.70;99.90;3.50;100147.00;;;;5009733;27;89270;-68
2022/12/21 06:36:11;;;;;;;17.33;9.17;;;3.70;99.90;3.60;100143.00;;;;5010065;27;101259;-68
2022/12/21 06:38:37;;;;;;;10.93;8.40;;;3.80;99.90;3.60;100142.00;;;;5009153;27;87922;-68
2022/12/21 06:41:07;;;;;;;11.23;6.93;;;3.70;99.90;3.70;100149.00;;;;5006340;27;100507;-69
2022/12/21 06:43:36;;;;;;;15.23;8.33;;;3.90;99.90;3.70;100145.00;;;;5008656;27;89182;-68
2022/12/21 06:46:09;;;;;;;25.53;12.07;;;3.90;99.90;3.70;100143.00;;;;4988692;27;89953;-68
2022/12/21 06:48:36;;;;;;;14.20;8.00;;;3.90;99.90;3.80;100151.00;;;;5006408;27;87834;-68
2022/12/21 06:51:10;;;;;;;15.87;8.70;;;4.00;99.90;3.80;100142.00;;;;5005031;27;88084;-68
2022/12/21 06:53:39;;;;;;;13.17;8.10;;;4.00;99.90;3.90;100151.00;;;;5005458;27;88074;-69
2022/12/21 06:56:11;;;;;;;11.47;8.17;;;4.00;99.90;3.90;100146.00;;;;4988833;27;88000;-69
2022/12/21 06:58:37;;;;;;;14.43;7.27;;;4.10;99.90;3.90;100147.00;;;;4986966;27;89204;-69
2022/12/21 07:01:13;;;;;;;15.40;8.87;;;4.10;99.90;4.00;100149.00;;;;4988692;27;97763;-69
2022/12/21 07:03:40;;;;;;;10.23;5.93;;;4.20;99.90;4.00;100141.00;;;;5006772;27;110550;-68
2022/12/21 07:06:07;;;;;;;13.73;7.30;;;4.20;99.90;4.00;100147.00;;;;5006713;27;88062;-69
2022/12/21 07:08:33;;;;;;;11.70;7.40;;;4.10;99.90;4.10;100144.00;;;;4990400;27;87975;-68
2022/12/21 07:11:03;;;;;;;15.00;8.17;;;4.20;99.90;4.10;100141.00;;;;5008126;27;90724;-69
2022/12/21 07:13:29;;;;;;;15.83;9.10;;;4.90;99.90;4.10;100141.00;;;;5009670;27;104871;-69
2022/12/21 07:15:56;;;;;;;13.17;8.40;;;4.30;99.90;4.20;100150.00;;;;5007586;27;116993;-68
2022/12/21 07:18:23;;;;;;;15.83;9.00;;;4.30;99.90;4.20;100148.00;;;;5007537;27;87885;-68
2022/12/21 07:20:49;;;;;;;13.70;8.10;;;4.00;99.90;4.20;100158.00;;;;5006430;27;88277;-68
2022/12/21 07:23:15;;;;;;;11.80;8.57;;;4.40;99.90;4.30;100156.00;;;;5008545;27;109104;-68
2022/12/21 07:25:41;;;;;;;14.93;8.20;;;5.20;99.90;4.30;100151.00;;;;5006209;27;104717;-68
2022/12/21 07:28:06;;;;;;;10.17;7.13;;;4.50;99.90;4.30;100164.00;;;;5003497;27;88032;-67
2022/12/21 07:30:32;;;;;;;15.13;9.80;;;4.50;99.90;4.30;100153.00;;;;4989258;27;108162;-68
2022/12/21 07:32:57;;;;;;;12.23;8.57;;;4.60;99.90;4.40;100161.00;;;;5004529;27;119022;-67
2022/12/21 07:35:24;;;;;;;17.27;9.13;;;4.60;99.90;4.40;100163.00;;;;5007577;27;116756;-68
2022/12/21 07:37:50;;;;;;;18.73;9.17;;;5.40;99.90;4.40;100167.00;;;;5010081;27;97028;-68
2022/12/21 07:40:17;;;;;;;11.83;7.67;;;4.80;99.90;4.50;100168.00;;;;4987941;27;89084;-67
2022/12/21 07:42:45;;;;;;;14.70;8.87;;;4.70;99.90;4.50;100167.00;;;;5002921;27;88329;-68
2022/12/21 07:45:11;;;;;;;13.80;8.83;;;4.70;99.90;4.50;100169.00;;;;4989781;27;88333;-68
2022/12/21 07:47:36;;;;;;;11.53;8.17;;;5.40;99.90;4.50;100176.00;;;;4986219;27;90245;-68
2022/12/21 07:50:07;;;;;;;17.93;9.23;;;4.70;99.90;4.60;100172.00;;;;4985823;27;109281;-68
2022/12/21 07:52:35;;;;;;;39.23;21.17;;;4.80;99.90;4.60;100169.00;;;;4987967;27;89051;-68
2022/12/21 07:55:01;;;;;;;17.77;9.77;;;4.80;99.90;4.60;100167.00;;;;4990258;27;89404;-68
2022/12/21 07:57:27;;;;;;;16.90;8.73;;;4.90;99.90;4.60;100167.00;;;;4985032;27;90423;-68
2022/12/21 07:59:52;;;;;;;12.60;9.13;;;4.80;99.90;4.60;100177.00;;;;4987346;27;87730;-69
2022/12/21 08:02:18;;;;;;;17.77;8.93;;;4.80;99.90;4.60;100167.00;;;;4988333;27;118495;-68
2022/12/21 08:04:43;;;;;;;15.43;9.57;;;4.80;99.90;4.60;100176.00;;;;4988834;27;117320;-68
2022/12/21 08:07:09;;;;;;;14.30;7.60;;;4.80;99.90;4.60;100177.00;;;;4985695;27;110454;-68
2022/12/21 08:09:35;;;;;;;15.77;9.03;;;4.90;99.90;4.60;100179.00;;;;4987167;28;109670;-68
2022/12/21 08:12:01;;;;;;;13.37;8.13;;;4.80;99.90;4.60;100184.00;;;;4986376;27;90005;-68
2022/12/21 08:14:27;;;;;;;14.90;9.43;;;4.70;99.90;4.60;100177.00;;;;4984746;28;118299;-68
2022/12/21 08:16:53;;;;;;;16.40;9.13;;;5.20;99.90;4.60;100180.00;;;;4990215;27;110678;-69
2022/12/21 08:19:20;;;;;;;15.40;8.97;;;4.80;99.90;4.60;100186.00;;;;4973926;27;88056;-67
2022/12/21 08:21:45;;;;;;;13.60;8.50;;;4.80;99.90;4.60;100175.00;;;;4985221;27;93924;-69
2022/12/21 08:24:11;;;;;;;16.57;9.97;;;5.30;99.90;4.50;100177.00;;;;4981968;27;88438;-69
2022/12/21 08:26:37;;;;;;;14.03;9.30;;;4.80;99.90;4.50;100181.00;;;;4989644;27;97198;-68
2022/12/21 08:29:03;;;;;;;14.50;8.93;;;4.70;99.90;4.50;100174.00;;;;4984263;27;109820;-67
2022/12/21 08:31:29;;;;;;;16.83;9.53;;;5.10;99.90;4.50;100184.00;;;;4989060;27;88297;-69
2022/12/21 08:33:54;;;;;;;12.73;9.00;;;4.60;99.90;4.50;100170.00;;;;4986478;28;116290;-68
2022/12/21 08:36:23;;;;;;;13.00;8.80;;;4.60;99.90;4.50;100188.00;;;;4984670;27;111415;-68
2022/12/21 08:38:50;;;;;;;13.77;8.83;;;4.70;99.90;4.40;100188.00;;;;4990329;27;88101;-69
2022/12/21 08:41:16;;;;;;;13.20;7.67;;;4.90;99.90;4.40;100189.00;;;;4954102;28;96055;-67
2022/12/21 08:43:41;;;;;;;15.93;9.37;;;4.60;99.90;4.40;100194.00;;;;5002674;27;101316;-69
2022/12/21 08:46:11;;;;;;;19.23;8.83;;;5.40;99.90;4.40;100191.00;;;;5004459;27;98379;-68
2022/12/21 08:48:37;;;;;;;24.60;10.17;;;4.50;99.90;4.30;100193.00;;;;5006983;27;100617;-68
2022/12/21 08:51:05;;;;;;;14.23;8.87;;;4.50;99.90;4.30;100186.00;;;;4990407;27;104564;-68
2022/12/21 08:53:31;;;;;;;13.80;8.83;;;4.60;99.90;4.30;100194.00;;;;5009815;27;89063;-68
2022/12/21 08:55:56;;;;;;;10.93;7.67;;;5.40;99.90;4.40;100196.00;;;;4989827;27;110703;-67
2022/12/21 08:58:23;;;;;;;19.20;8.33;;;4.60;99.90;4.30;100203.00;;;;5007550;27;89593;-69
2022/12/21 09:00:54;;;;;;;15.23;8.93;;;4.50;99.90;4.40;100204.00;;;;4991636;27;118398;-67
2022/12/21 09:03:21;;;;;;;12.20;8.07;;;4.60;99.90;4.40;100208.00;;;;5002915;27;89165;-67
2022/12/21 09:05:53;;;;;;;9.53;7.73;;;4.80;99.90;4.40;100211.00;;;;4991750;27;88355;-69
2022/12/21 09:08:18;;;;;;;17.83;10.33;;;4.60;99.90;4.40;100202.00;;;;5011748;27;87764;-68
2022/12/21 09:10:44;;;;;;;16.90;8.97;;;4.60;99.90;4.40;100199.00;;;;5009442;27;115829;-68
2022/12/21 09:13:10;;;;;;;16.67;9.77;;;4.50;99.90;4.40;100202.00;;;;5007433;27;115735;-68
2022/12/21 09:15:42;;;;;;;12.97;8.10;;;5.40;99.90;4.40;100210.00;;;;5001945;27;95450;-67
2022/12/21 09:18:09;;;;;;;14.80;8.33;;;4.60;99.90;4.40;100216.00;;;;5005159;27;87226;-68
2022/12/21 09:20:35;;;;;;;15.63;7.47;;;4.60;99.90;4.40;100216.00;;;;5007410;27;101201;-67
2022/12/21 09:23:01;;;;;;;12.20;7.93;;;4.60;99.90;4.40;100201.00;;;;5008032;27;89229;-68
2022/12/21 09:25:27;;;;;;;16.50;9.47;;;4.60;99.90;4.40;100205.00;;;;4986766;27;100443;-69
2022/12/21 09:27:53;;;;;;;11.83;7.50;;;4.60;99.90;4.40;100198.00;;;;4991123;27;108526;-67
2022/12/21 09:30:18;;;;;;;12.57;8.13;;;4.50;99.90;4.30;100194.00;;;;5010529;27;116148;-68
2022/12/21 09:32:44;;;;;;;16.40;9.60;;;4.50;99.90;4.30;100180.00;;;;5006445;27;116831;-68
2022/12/21 09:35:10;;;;;;;14.40;8.97;;;4.80;99.90;4.30;100193.00;;;;5004592;27;108597;-68
2022/12/21 09:37:36;;;;;;;10.90;7.67;;;4.60;99.90;4.30;100193.00;;;;5010579;27;87947;-68
2022/12/21 09:40:04;;;;;;;11.73;8.33;;;4.50;99.90;4.30;100200.00;;;;5005927;27;116827;-68
2022/12/21 09:42:38;;;;;;;14.70;7.83;;;4.60;99.90;4.30;100203.00;;;;5010084;27;88787;-68
2022/12/21 09:45:13;;;;;;;17.37;9.80;;;4.60;99.90;4.30;100203.00;;;;5006700;27;88126;-68
2022/12/21 09:47:54;;;;;;;15.00;7.87;;;4.70;99.90;4.30;100199.00;;;;5005878;27;88968;-69
2022/12/21 09:50:30;;;;;;;15.13;8.77;;;4.90;99.90;4.30;100192.00;;;;5004726;27;90194;-67
2022/12/21 09:53:11;;;;;;;15.50;9.43;;;4.60;99.90;4.30;100187.00;;;;4988677;27;88210;-68
2022/12/21 09:55:46;;;;;;;14.73;7.57;;;4.60;99.90;4.30;100193.00;;;;4981345;27;87896;-68
2022/12/21 09:58:36;;;;;;;19.53;10.63;;;4.60;99.90;4.30;100188.00;;;;4976715;27;88866;-67
2022/12/21 10:01:28;;;;;;;25.27;15.20;;;4.50;99.90;4.30;100195.00;;;;4986647;27;87750;-67
2022/12/21 10:04:21;;;;;;;17.50;12.40;;;4.60;99.90;4.30;100197.00;;;;5008290;27;92073;-68
2022/12/21 10:07:35;;;;;;;14.57;7.33;;;4.60;99.90;4.30;100185.00;;;;5005555;27;87680;-68
2022/12/21 10:10:26;;;;;;;12.60;8.37;;;4.50;99.90;4.30;100193.00;;;;4978957;27;87267;-69
2022/12/21 10:13:36;;;;;;;16.30;8.13;;;4.50;99.90;4.20;100185.00;;;;5005741;27;87946;-67
2022/12/21 10:16:26;;;;;;;15.20;8.40;;;4.60;99.90;4.30;100185.00;;;;4987381;27;108655;-68
2022/12/21 10:19:31;;;;;;;13.47;9.10;;;4.50;99.90;4.20;100172.00;;;;4983675;27;93633;-69
2022/12/21 10:22:14;;;;;;;14.40;8.37;;;4.50;99.90;4.20;100170.00;;;;4976600;27;87846;-67
2022/12/21 10:24:56;;;;;;;17.03;8.83;;;4.50;99.90;4.30;100175.00;;;;4991272;27;87885;-69
2022/12/21 10:27:42;;;;;;;19.50;10.20;;;4.40;99.90;4.30;100168.00;;;;4972159;27;89848;-69
2022/12/21 10:30:16;;;;;;;15.30;7.90;;;4.50;99.90;4.30;100167.00;;;;4971043;27;87941;-70
2022/12/21 10:32:48;;;;;;;11.83;8.63;;;4.50;99.90;4.30;100172.00;;;;4990239;27;88158;-69
2022/12/21 10:35:28;;;;;;;18.53;11.67;;;4.50;99.90;4.30;100163.00;;;;4986412;27;90231;-70
2022/12/21 10:37:55;;;;;;;13.50;9.30;;;5.20;99.90;4.30;100163.00;;;;5004197;27;87188;-69
2022/12/21 10:40:28;;;;;;;14.03;9.37;;;4.50;99.90;4.40;100168.00;;;;5005299;27;114115;-70
2022/12/21 10:42:54;;;;;;;16.03;9.57;;;4.60;99.90;4.40;100162.00;;;;5006551;27;88167;-71
2022/12/21 10:45:24;;;;;;;16.43;10.20;;;4.50;99.90;4.30;100160.00;;;;5005508;27;89416;-70
2022/12/21 10:47:50;;;;;;;16.07;8.37;;;4.60;99.90;4.30;100168.00;;;;4972052;27;88141;-69
2022/12/21 10:50:25;;;;;;;11.70;8.23;;;4.50;99.90;4.30;100151.00;;;;5006401;27;90508;-70
2022/12/21 10:52:56;;;;;;;18.20;10.93;;;4.60;99.90;4.40;100151.00;;;;4991739;27;87995;-70
2022/12/21 10:55:22;;;;;;;16.93;9.53;;;4.50;99.90;4.40;100143.00;;;;4979761;27;89791;-68
2022/12/21 10:57:52;;;;;;;18.90;10.57;;;4.60;99.90;4.30;100139.00;;;;5009808;27;103116;-68
2022/12/21 11:00:35;;;;;;;13.03;8.53;;;5.30;99.90;4.30;100140.00;;;;5004168;27;87828;-68
2022/12/21 11:03:05;;;;;;;15.90;8.60;;;4.60;99.90;4.40;100136.00;;;;4990797;27;87256;-68
2022/12/21 11:05:39;;;;;;;14.07;8.67;;;4.60;99.90;4.30;100127.00;;;;5006273;27;88323;-69
2022/12/21 11:08:13;;;;;;;16.70;8.00;;;4.50;99.90;4.30;100134.00;;;;5004348;27;107487;-68
2022/12/21 11:10:41;;;;;;;17.80;9.57;;;4.60;99.90;4.40;100135.00;;;;4999698;27;89019;-67
2022/12/21 11:13:07;;;;;;;15.30;8.10;;;4.60;99.90;4.40;100127.00;;;;5003447;27;87944;-69
2022/12/21 11:15:33;;;;;;;14.43;9.07;;;4.60;99.90;4.40;100135.00;;;;5006855;27;106864;-69
2022/12/21 11:17:59;;;;;;;11.30;7.90;;;4.60;99.90;4.50;100127.00;;;;5008865;27;89793;-67
2022/12/21 11:20:27;;;;;;;15.20;8.63;;;4.60;99.90;4.50;100126.00;;;;4982482;27;111126;-69
2022/12/21 11:22:56;;;;;;;12.37;8.00;;;5.20;99.90;4.50;100130.00;;;;5004818;27;108960;-67
2022/12/21 11:25:27;;;;;;;12.50;8.53;;;4.70;99.90;4.50;100132.00;;;;4983991;27;106009;-69